createdAt,value
2023-09-11T00:01:04.750Z,31.42
2023-09-11T00:03:35.397Z,31.42
2023-09-11T00:06:08.192Z,31.39
2023-09-11T00:08:37.235Z,31.36
2023-09-11T00:11:06.160Z,31.35
2023-09-11T00:13:34.985Z,31.32
2023-09-11T00:16:03.433Z,31.31
2023-09-11T00:18:31.840Z,31.30
2023-09-11T00:21:01.636Z,31.29
2023-09-11T00:23:30.138Z,31.27
2023-09-11T00:25:58.645Z,31.25
2023-09-11T00:28:27.136Z,31.24
2023-09-11T00:31:01.224Z,31.22
2023-09-11T00:33:29.905Z,31.20
2023-09-11T00:35:58.437Z,31.19
2023-09-11T00:38:28.575Z,31.18
2023-09-11T00:40:57.069Z,31.15
2023-09-11T00:43:25.427Z,31.14
2023-09-11T00:45:53.852Z,31.13
2023-09-11T00:48:22.558Z,31.11
2023-09-11T00:50:51.746Z,31.11
2023-09-11T00:53:21.630Z,31.08
2023-09-11T00:55:51.432Z,31.06
2023-09-11T00:58:20.206Z,31.04
2023-09-11T01:00:49.530Z,31.03
2023-09-11T01:03:18.744Z,30.99
2023-09-11T01:05:47.551Z,30.98
2023-09-11T01:08:16.088Z,30.96
2023-09-11T01:10:44.738Z,30.95
2023-09-11T01:13:14.930Z,30.94
2023-09-11T01:15:53.577Z,30.93
2023-09-11T01:18:30.371Z,30.90
2023-09-11T01:21:31.273Z,30.88
2023-09-11T01:24:46.276Z,30.82
2023-09-11T01:27:54.380Z,30.79
2023-09-11T01:30:24.652Z,30.79
2023-09-11T01:32:53.955Z,30.78
2023-09-11T01:35:22.846Z,30.78
2023-09-11T01:37:51.672Z,30.77
2023-09-11T01:40:22.259Z,30.74
2023-09-11T01:42:57.726Z,30.72
2023-09-11T01:45:28.758Z,30.71
2023-09-11T01:47:58.321Z,30.69
2023-09-11T01:50:27.881Z,30.67
2023-09-11T01:52:56.519Z,30.65
2023-09-11T01:55:25.073Z,30.65
2023-09-11T01:57:54.108Z,30.61
2023-09-11T02:00:22.656Z,30.59
2023-09-11T02:02:56.595Z,30.60
2023-09-11T02:05:25.254Z,30.58
2023-09-11T02:07:53.853Z,30.55
2023-09-11T02:10:22.225Z,30.52
2023-09-11T02:12:50.667Z,30.52
2023-09-11T02:15:19.038Z,30.50
2023-09-11T02:17:47.439Z,30.49
2023-09-11T02:20:17.495Z,30.49
2023-09-11T02:22:45.880Z,30.49
2023-09-11T02:25:14.290Z,30.48
2023-09-11T02:27:42.719Z,30.47
2023-09-11T02:30:11.877Z,30.45
2023-09-11T02:32:40.335Z,30.44
2023-09-11T02:35:10.006Z,30.45
2023-09-11T02:37:41.214Z,30.42
2023-09-11T02:40:12.930Z,30.42
2023-09-11T02:42:41.308Z,30.39
2023-09-11T02:45:11.140Z,30.39
2023-09-11T02:47:40.309Z,30.37
2023-09-11T02:50:10.148Z,30.36
2023-09-11T02:52:39.872Z,30.33
2023-09-11T02:55:12.441Z,30.32
2023-09-11T02:57:40.907Z,30.31
2023-09-11T03:00:11.535Z,30.29
2023-09-11T03:02:40.670Z,30.27
2023-09-11T03:05:10.145Z,30.26
2023-09-11T03:07:39.994Z,30.26
2023-09-11T03:10:09.084Z,30.24
2023-09-11T03:12:37.557Z,30.21
2023-09-11T03:15:08.712Z,30.19
2023-09-11T03:17:37.174Z,30.18
2023-09-11T03:20:08.506Z,30.16
2023-09-11T03:22:37.301Z,30.15
2023-09-11T03:25:07.988Z,30.14
2023-09-11T03:27:36.386Z,30.13
2023-09-11T03:30:05.665Z,30.12
2023-09-11T03:32:34.479Z,30.10
2023-09-11T03:35:03.516Z,30.09
2023-09-11T03:37:32.027Z,30.06
2023-09-11T03:40:00.400Z,30.05
2023-09-11T03:42:31.101Z,30.04
2023-09-11T03:44:59.504Z,30.03
2023-09-11T03:47:28.102Z,30.02
2023-09-11T03:49:56.585Z,30.00
2023-09-11T03:52:24.998Z,30.00
2023-09-11T03:54:53.383Z,29.99
2023-09-11T03:57:21.925Z,29.98
2023-09-11T03:59:51.836Z,29.95
2023-09-11T04:02:20.280Z,29.92
2023-09-11T04:04:48.644Z,29.90
2023-09-11T04:07:17.026Z,29.88
2023-09-11T04:09:45.483Z,29.86
2023-09-11T04:12:19.070Z,29.86
2023-09-11T04:14:48.083Z,29.85
2023-09-11T04:17:17.950Z,29.83
2023-09-11T04:19:46.719Z,29.82
2023-09-11T04:22:15.444Z,29.81
2023-09-11T04:24:43.820Z,29.80
2023-09-11T04:27:12.565Z,29.76
2023-09-11T04:29:41.870Z,29.77
2023-09-11T04:32:13.206Z,29.75
2023-09-11T04:34:43.363Z,29.73
2023-09-11T04:37:11.937Z,29.73
2023-09-11T04:39:40.617Z,29.71
2023-09-11T04:42:09.129Z,29.69
2023-09-11T04:44:39.071Z,29.68
2023-09-11T04:47:07.696Z,29.67
2023-09-11T04:49:36.837Z,29.65
2023-09-11T04:52:06.980Z,29.65
2023-09-11T04:54:35.410Z,29.62
2023-09-11T04:57:03.922Z,29.61
2023-09-11T04:59:32.392Z,29.61
2023-09-11T05:02:00.913Z,29.60
2023-09-11T05:04:29.357Z,29.58
2023-09-11T05:06:57.864Z,29.56
2023-09-11T05:09:27.919Z,29.55
2023-09-11T05:11:56.569Z,29.53
2023-09-11T05:14:25.125Z,29.53
2023-09-11T05:16:53.644Z,29.52
2023-09-11T05:19:23.378Z,29.50
2023-09-11T05:21:52.381Z,29.49
2023-09-11T05:24:20.792Z,29.49
2023-09-11T05:26:50.621Z,29.49
2023-09-11T05:29:19.241Z,29.47
2023-09-11T05:31:47.799Z,29.45
2023-09-11T05:34:16.479Z,29.46
2023-09-11T05:36:44.917Z,29.44
2023-09-11T05:39:13.358Z,29.43
2023-09-11T05:41:42.066Z,29.42
2023-09-11T05:44:12.105Z,29.42
2023-09-11T05:46:40.634Z,29.41
2023-09-11T05:49:09.205Z,29.41
2023-09-11T05:51:37.654Z,29.39
2023-09-11T05:54:06.566Z,29.39
2023-09-11T05:56:35.061Z,29.39
2023-09-11T05:59:04.103Z,29.38
2023-09-11T06:01:33.837Z,29.40
2023-09-11T06:04:02.622Z,29.38
2023-09-11T06:06:31.455Z,29.37
2023-09-11T06:09:01.005Z,29.37
2023-09-11T06:11:29.750Z,29.37
2023-09-11T06:13:58.701Z,29.37
2023-09-11T06:16:27.164Z,29.37
2023-09-11T06:18:57.299Z,29.37
2023-09-11T06:21:26.313Z,29.38
2023-09-11T06:23:55.152Z,29.37
2023-09-11T06:26:23.646Z,29.36
2023-09-11T06:28:52.446Z,29.36
2023-09-11T06:31:21.809Z,29.38
2023-09-11T06:33:51.503Z,29.36
2023-09-11T06:36:21.412Z,29.38
2023-09-11T06:38:49.844Z,29.38
2023-09-11T06:41:18.516Z,29.39
2023-09-11T06:43:47.245Z,29.38
2023-09-11T06:46:15.918Z,29.41
2023-09-11T06:48:44.748Z,29.40
2023-09-11T06:51:13.752Z,29.42
2023-09-11T06:53:43.659Z,29.44
2023-09-11T06:56:12.210Z,29.44
2023-09-11T06:58:43.559Z,29.45
2023-09-11T07:01:12.330Z,29.45
2023-09-11T07:03:40.889Z,29.45
2023-09-11T07:06:09.879Z,29.46
2023-09-11T07:08:38.479Z,29.45
2023-09-11T07:11:08.573Z,29.47
2023-09-11T07:13:36.937Z,29.47
2023-09-11T07:16:06.272Z,29.49
2023-09-11T07:18:34.785Z,29.50
2023-09-11T07:21:03.270Z,29.53
2023-09-11T07:23:31.975Z,29.56
2023-09-11T07:26:00.540Z,29.56
2023-09-11T07:28:30.415Z,29.60
2023-09-11T07:30:59.859Z,29.62
2023-09-11T07:33:29.572Z,29.66
2023-09-11T07:35:58.151Z,29.68
2023-09-11T07:38:26.751Z,29.71
2023-09-11T07:40:55.216Z,29.73
2023-09-11T07:43:24.472Z,29.77
2023-09-11T07:45:54.270Z,29.80
2023-09-11T07:48:22.776Z,29.81
2023-09-11T07:50:57.828Z,29.84
2023-09-11T07:53:26.511Z,29.85
2023-09-11T07:55:54.878Z,29.88
2023-09-11T07:58:23.796Z,29.90
2023-09-11T08:00:54.212Z,29.94
2023-09-11T08:03:24.048Z,29.97
2023-09-11T08:05:52.579Z,29.99
2023-09-11T08:08:21.029Z,30.05
2023-09-11T08:10:49.790Z,30.08
2023-09-11T08:13:18.224Z,30.12
2023-09-11T08:15:47.108Z,30.18
2023-09-11T08:18:17.013Z,30.22
2023-09-11T08:20:47.908Z,30.26
2023-09-11T08:23:16.564Z,30.30
2023-09-11T08:25:44.931Z,30.36
2023-09-11T08:28:13.434Z,30.40
2023-09-11T08:30:42.475Z,30.47
2023-09-11T08:33:11.236Z,30.52
2023-09-11T08:35:41.558Z,30.57
2023-09-11T08:38:09.978Z,30.61
2023-09-11T08:40:38.618Z,30.67
2023-09-11T08:43:07.372Z,30.71
2023-09-11T08:45:36.021Z,30.77
2023-09-11T08:48:10.767Z,30.82
2023-09-11T08:50:45.638Z,30.86
2023-09-11T08:53:19.166Z,30.94
2023-09-11T08:55:49.178Z,30.97
2023-09-11T08:58:22.351Z,31.05
2023-09-11T09:00:51.335Z,31.08
2023-09-11T09:03:22.006Z,31.14
2023-09-11T09:05:52.052Z,31.20
2023-09-11T09:08:22.380Z,31.26
2023-09-11T09:10:51.129Z,31.31
2023-09-11T09:13:19.520Z,31.36
2023-09-11T09:15:48.004Z,31.42
2023-09-11T09:18:16.482Z,31.45
2023-09-11T09:20:45.006Z,31.50
2023-09-11T09:23:15.406Z,31.55
2023-09-11T09:25:44.154Z,31.59
2023-09-11T09:28:31.076Z,31.67
2023-09-11T09:31:00.474Z,31.72
2023-09-11T09:33:29.877Z,31.77
2023-09-11T09:35:58.463Z,31.80
2023-09-11T09:38:29.216Z,31.85
2023-09-11T09:40:58.417Z,31.89
2023-09-11T09:43:26.814Z,31.94
2023-09-11T09:45:55.253Z,31.96
2023-09-11T09:48:23.789Z,32.01
2023-09-11T09:50:58.281Z,32.04
2023-09-11T09:53:32.178Z,32.07
2023-09-11T09:56:04.326Z,32.11
2023-09-11T09:58:37.290Z,32.17
2023-09-11T10:01:08.096Z,32.20
2023-09-11T10:03:42.932Z,32.25
2023-09-11T10:06:16.818Z,32.30
2023-09-11T10:08:47.843Z,32.31
2023-09-11T10:11:29.561Z,32.35
2023-09-11T10:14:00.207Z,32.37
2023-09-11T10:16:31.398Z,32.42
2023-09-11T10:19:01.572Z,32.45
2023-09-11T10:21:31.578Z,32.50
2023-09-11T10:24:01.418Z,32.54
2023-09-11T10:26:38.784Z,32.59
2023-09-11T10:29:13.189Z,32.64
2023-09-11T10:31:54.433Z,32.70
2023-09-11T10:34:25.006Z,32.75
2023-09-11T10:37:00.077Z,32.80
2023-09-11T10:39:30.857Z,32.85
2023-09-11T10:41:59.534Z,32.91
2023-09-11T10:44:30.093Z,32.96
2023-09-11T10:47:05.175Z,33.01
2023-09-11T10:49:39.348Z,33.05
2023-09-11T10:52:10.336Z,33.10
2023-09-11T10:54:42.221Z,33.15
2023-09-11T10:57:10.770Z,33.19
2023-09-11T10:59:39.317Z,33.25
2023-09-11T11:02:08.116Z,33.31
2023-09-11T11:04:37.374Z,33.36
2023-09-11T11:07:06.220Z,33.43
2023-09-11T11:09:37.288Z,33.49
2023-09-11T11:12:10.977Z,33.53
2023-09-11T11:14:39.664Z,33.56
2023-09-11T11:17:11.323Z,33.61
2023-09-11T11:19:41.711Z,33.65
2023-09-11T11:22:11.190Z,33.67
2023-09-11T11:24:55.677Z,33.71
2023-09-11T11:27:25.665Z,33.74
2023-09-11T11:29:55.284Z,33.78
2023-09-11T11:32:24.431Z,33.82
2023-09-11T11:34:53.041Z,33.87
2023-09-11T11:37:22.877Z,33.91
2023-09-11T11:39:52.205Z,33.95
2023-09-11T11:42:22.117Z,33.99
2023-09-11T11:44:52.821Z,34.02
2023-09-11T11:47:21.621Z,34.05
2023-09-11T11:49:51.088Z,34.08
2023-09-11T11:52:24.249Z,34.10
2023-09-11T11:54:52.710Z,34.10
2023-09-11T11:57:22.770Z,34.13
2023-09-11T11:59:53.208Z,34.18
2023-09-11T12:02:23.319Z,34.23
2023-09-11T12:04:55.976Z,34.25
2023-09-11T12:07:25.340Z,34.28
2023-09-11T12:09:53.851Z,34.30
2023-09-11T12:12:22.566Z,34.32
2023-09-11T12:14:57.800Z,34.37
2023-09-11T12:17:26.490Z,34.39
2023-09-11T12:20:15.080Z,34.41
2023-09-11T12:22:45.363Z,34.45
2023-09-11T12:25:14.438Z,34.50
2023-09-11T12:27:45.424Z,34.53
2023-09-11T12:30:16.672Z,34.58
2023-09-11T12:32:47.426Z,34.62
2023-09-11T12:35:15.905Z,34.65
2023-09-11T12:37:44.525Z,34.69
2023-09-11T12:40:13.470Z,34.74
2023-09-11T12:42:43.161Z,34.79
2023-09-11T12:45:12.350Z,34.84
2023-09-11T12:47:42.793Z,34.88
2023-09-11T12:50:11.862Z,34.91
2023-09-11T12:52:40.589Z,34.93
2023-09-11T12:55:09.375Z,34.94
2023-09-11T12:57:37.918Z,34.95
2023-09-11T13:00:07.722Z,35.00
2023-09-11T13:02:36.423Z,35.04
2023-09-11T13:05:09.981Z,35.09
2023-09-11T13:07:38.592Z,35.12
2023-09-11T13:10:08.666Z,35.15
2023-09-11T13:12:37.411Z,35.18
2023-09-11T13:15:08.599Z,35.22
2023-09-11T13:17:38.674Z,35.26
2023-09-11T13:20:10.544Z,35.27
2023-09-11T13:22:39.370Z,35.30
2023-09-11T13:25:08.645Z,35.35
2023-09-11T13:27:37.849Z,35.37
2023-09-11T13:30:08.621Z,35.39
2023-09-11T13:32:38.985Z,35.41
2023-09-11T13:35:10.673Z,35.44
2023-09-11T13:37:40.065Z,35.45
2023-09-11T13:40:09.398Z,35.46
2023-09-11T13:42:40.065Z,35.48
2023-09-11T13:45:11.309Z,35.49
2023-09-11T13:47:40.724Z,35.50
2023-09-11T13:50:11.902Z,35.53
2023-09-11T13:52:40.727Z,35.55
2023-09-11T13:55:10.292Z,35.57
2023-09-11T13:57:38.785Z,35.57
2023-09-11T14:00:09.005Z,35.59
2023-09-11T14:02:43.217Z,35.61
2023-09-11T14:05:13.400Z,35.63
2023-09-11T14:07:41.797Z,35.64
2023-09-11T14:10:11.245Z,35.63
2023-09-11T14:12:39.648Z,35.64
2023-09-11T14:15:10.025Z,35.65
2023-09-11T14:17:38.484Z,35.65
2023-09-11T14:20:11.770Z,35.68
2023-09-11T14:22:43.437Z,35.68
2023-09-11T14:25:12.381Z,35.67
2023-09-11T14:27:40.800Z,35.66
2023-09-11T14:30:11.439Z,35.67
2023-09-11T14:32:39.894Z,35.66
2023-09-11T14:35:09.726Z,35.66
2023-09-11T14:37:38.414Z,35.67
2023-09-11T14:40:11.656Z,35.70
2023-09-11T14:42:40.176Z,35.69
2023-09-11T14:45:10.264Z,35.73
2023-09-11T14:47:38.919Z,35.73
2023-09-11T14:50:10.888Z,35.74
2023-09-11T14:52:39.771Z,35.74
2023-09-11T14:55:10.775Z,35.76
2023-09-11T14:57:39.224Z,35.73
2023-09-11T15:00:09.662Z,35.73
2023-09-11T15:02:38.387Z,35.70
2023-09-11T15:05:07.707Z,35.69
2023-09-11T15:07:36.167Z,35.67
2023-09-11T15:10:05.377Z,35.67
2023-09-11T15:12:35.584Z,35.68
2023-09-11T15:15:04.453Z,35.66
2023-09-11T15:17:33.006Z,35.68
2023-09-11T15:20:01.574Z,35.67
2023-09-11T15:22:30.111Z,35.67
2023-09-11T15:24:59.729Z,35.64
2023-09-11T15:27:28.159Z,35.62
2023-09-11T15:29:58.630Z,35.61
2023-09-11T15:32:27.292Z,35.59
2023-09-11T15:34:55.808Z,35.59
2023-09-11T15:37:25.182Z,35.58
2023-09-11T15:39:53.582Z,35.57
2023-09-11T15:42:22.018Z,35.55
2023-09-11T15:44:51.523Z,35.54
2023-09-11T15:47:21.820Z,35.52
2023-09-11T15:49:50.520Z,35.50
2023-09-11T15:52:18.874Z,35.50
2023-09-11T15:54:47.299Z,35.48
2023-09-11T15:57:15.964Z,35.45
2023-09-11T15:59:44.826Z,35.42
2023-09-11T16:02:13.268Z,35.43
2023-09-11T16:04:43.409Z,35.41
2023-09-11T16:07:12.191Z,35.37
2023-09-11T16:09:40.851Z,35.35
2023-09-11T16:12:09.563Z,35.34
2023-09-11T16:14:38.201Z,35.32
2023-09-11T16:17:06.780Z,35.30
2023-09-11T16:19:35.311Z,35.30
2023-09-11T16:22:05.439Z,35.28
2023-09-11T16:24:33.848Z,35.26
2023-09-11T16:27:02.611Z,35.23
2023-09-11T16:29:31.011Z,35.24
2023-09-11T16:31:59.485Z,35.21
2023-09-11T16:34:28.015Z,35.17
2023-09-11T16:36:56.468Z,35.13
2023-09-11T16:39:26.251Z,35.06
2023-09-11T16:41:54.787Z,35.02
2023-09-11T16:44:23.654Z,35.00
2023-09-11T16:46:52.294Z,34.99
2023-09-11T16:49:24.514Z,34.96
2023-09-11T16:51:52.918Z,34.92
2023-09-11T16:54:21.372Z,34.91
2023-09-11T16:56:51.528Z,34.90
2023-09-11T16:59:20.123Z,34.89
2023-09-11T17:01:48.552Z,34.87
2023-09-11T17:04:16.965Z,34.84
2023-09-11T17:06:47.543Z,34.81
2023-09-11T17:09:16.993Z,34.76
2023-09-11T17:11:45.550Z,34.73
2023-09-11T17:14:15.635Z,34.71
2023-09-11T17:16:44.187Z,34.65
2023-09-11T17:19:12.822Z,34.65
2023-09-11T17:21:41.714Z,34.61
2023-09-11T17:24:10.809Z,34.62
2023-09-11T17:26:39.828Z,34.60
2023-09-11T17:29:08.214Z,34.58
2023-09-11T17:31:38.092Z,34.54
2023-09-11T17:34:06.659Z,34.53
2023-09-11T17:36:35.341Z,34.51
2023-09-11T17:39:04.334Z,34.51
2023-09-11T17:41:32.776Z,34.49
2023-09-11T17:44:01.382Z,34.49
2023-09-11T17:46:29.834Z,34.44
2023-09-11T17:48:59.705Z,34.40
2023-09-11T17:51:28.119Z,34.38
2023-09-11T17:53:56.869Z,34.38
2023-09-11T17:56:25.358Z,34.37
2023-09-11T17:58:53.885Z,34.37
2023-09-11T18:01:22.339Z,34.34
2023-09-11T18:03:57.423Z,34.33
2023-09-11T18:06:28.792Z,34.33
2023-09-11T18:08:58.885Z,34.31
2023-09-11T18:11:27.476Z,34.30
2023-09-11T18:13:55.934Z,34.28
2023-09-11T18:16:24.465Z,34.27
2023-09-11T18:18:53.129Z,34.25
2023-09-11T18:21:21.726Z,34.25
2023-09-11T18:23:51.558Z,34.25
2023-09-11T18:26:20.052Z,34.22
2023-09-11T18:28:48.520Z,34.21
2023-09-11T18:31:16.909Z,34.18
2023-09-11T18:33:46.591Z,34.17
2023-09-11T18:36:16.593Z,34.16
2023-09-11T18:38:45.143Z,34.13
2023-09-11T18:41:15.011Z,34.12
2023-09-11T18:43:43.468Z,34.10
2023-09-11T18:46:12.690Z,34.09
2023-09-11T18:48:42.931Z,34.07
2023-09-11T18:51:12.506Z,34.05
2023-09-11T18:53:41.015Z,34.03
2023-09-11T18:56:09.646Z,34.02
2023-09-11T18:58:39.773Z,34.01
2023-09-11T19:01:08.794Z,33.98
2023-09-11T19:03:37.493Z,33.96
2023-09-11T19:06:06.475Z,33.96
2023-09-11T19:08:35.242Z,33.95
2023-09-11T19:11:03.720Z,33.93
2023-09-11T19:13:32.606Z,33.91
2023-09-11T19:16:02.661Z,33.90
2023-09-11T19:18:37.916Z,33.89
2023-09-11T19:21:07.348Z,33.88
2023-09-11T19:23:36.499Z,33.85
2023-09-11T19:26:09.622Z,33.85
2023-09-11T19:28:40.237Z,33.82
2023-09-11T19:31:10.600Z,33.82
2023-09-11T19:33:39.326Z,33.80
2023-09-11T19:36:08.205Z,33.78
2023-09-11T19:38:36.730Z,33.77
2023-09-11T19:41:07.407Z,33.75
2023-09-11T19:43:36.184Z,33.73
2023-09-11T19:46:04.935Z,33.73
2023-09-11T19:48:36.617Z,33.72
2023-09-11T19:51:05.432Z,33.70
2023-09-11T19:53:33.868Z,33.68
2023-09-11T19:56:02.563Z,33.67
2023-09-11T19:58:31.132Z,33.65
2023-09-11T20:01:02.783Z,33.64
2023-09-11T20:03:31.311Z,33.62
2023-09-11T20:06:01.198Z,33.60
2023-09-11T20:08:29.726Z,33.59
2023-09-11T20:10:58.350Z,33.56
2023-09-11T20:13:30.153Z,33.56
2023-09-11T20:15:58.850Z,33.53
2023-09-11T20:18:27.228Z,33.52
2023-09-11T20:20:55.846Z,33.51
2023-09-11T20:23:25.825Z,33.50
2023-09-11T20:25:54.373Z,33.49
2023-09-11T20:28:22.936Z,33.48
2023-09-11T20:30:51.483Z,33.45
2023-09-11T20:33:20.015Z,33.43
2023-09-11T20:35:48.564Z,33.42
2023-09-11T20:38:21.393Z,33.41
2023-09-11T20:40:51.437Z,33.41
2023-09-11T20:43:19.811Z,33.39
2023-09-11T20:45:48.287Z,33.38
2023-09-11T20:48:16.734Z,33.37
2023-09-11T20:50:45.234Z,33.36
2023-09-11T20:53:13.778Z,33.33
2023-09-11T20:55:42.290Z,33.33
2023-09-11T20:58:12.564Z,33.29
2023-09-11T21:00:41.640Z,33.25
2023-09-11T21:03:10.143Z,33.17
2023-09-11T21:05:38.921Z,33.11
2023-09-11T21:08:07.534Z,33.03
2023-09-11T21:10:36.118Z,32.96
2023-09-11T21:13:05.124Z,32.86
2023-09-11T21:15:34.911Z,32.78
2023-09-11T21:18:03.536Z,32.69
2023-09-11T21:20:31.959Z,32.63
2023-09-11T21:23:02.424Z,32.54
2023-09-11T21:25:30.873Z,32.46
2023-09-11T21:28:00.156Z,32.36
2023-09-11T21:30:28.891Z,32.30
2023-09-11T21:32:58.749Z,32.26
2023-09-11T21:35:27.266Z,32.21
2023-09-11T21:37:55.748Z,32.14
2023-09-11T21:40:24.418Z,32.08
2023-09-11T21:42:52.776Z,32.01
2023-09-11T21:45:21.260Z,31.95
2023-09-11T21:47:49.714Z,31.90
2023-09-11T21:50:19.502Z,31.83
2023-09-11T21:52:48.046Z,31.76
2023-09-11T21:55:16.634Z,31.72
2023-09-11T21:57:45.006Z,31.71
2023-09-11T22:00:15.254Z,31.67
2023-09-11T22:02:43.914Z,31.63
2023-09-11T22:05:13.684Z,31.64
2023-09-11T22:07:43.866Z,31.66
2023-09-11T22:10:12.607Z,31.68
2023-09-11T22:12:41.170Z,31.67
2023-09-11T22:15:10.837Z,31.67
2023-09-11T22:17:39.436Z,31.68
2023-09-11T22:20:09.830Z,31.71
2023-09-11T22:22:38.449Z,31.72
2023-09-11T22:25:09.608Z,31.76
2023-09-11T22:27:38.105Z,31.74
2023-09-11T22:30:08.669Z,31.72
2023-09-11T22:32:53.182Z,31.68
2023-09-11T22:35:23.701Z,31.65
2023-09-11T22:37:52.669Z,31.65
2023-09-11T22:40:22.739Z,31.68
2023-09-11T22:42:51.137Z,31.68
2023-09-11T22:45:19.756Z,31.70
2023-09-11T22:53:02.534Z,31.68
2023-09-11T23:00:12.650Z,31.70
2023-09-11T23:02:41.744Z,31.73
2023-09-11T23:09:39.600Z,31.71
2023-09-11T23:12:08.910Z,31.71
2023-09-11T23:14:37.460Z,31.70
2023-09-11T23:17:07.988Z,31.71
2023-09-11T23:19:36.380Z,31.70
2023-09-11T23:22:05.157Z,31.70
2023-09-11T23:24:33.791Z,31.71
2023-09-11T23:27:02.671Z,31.71
2023-09-11T23:29:31.106Z,31.71
2023-09-11T23:31:59.568Z,31.70
2023-09-11T23:34:29.394Z,31.71
2023-09-11T23:36:57.879Z,31.70
2023-09-11T23:39:26.333Z,31.68
2023-09-11T23:41:54.733Z,31.68
2023-09-11T23:44:23.377Z,31.67
2023-09-11T23:46:51.778Z,31.67
2023-09-11T23:49:20.341Z,31.67
2023-09-11T23:51:50.166Z,31.68
2023-09-11T23:54:18.560Z,31.64
2023-09-11T23:56:46.990Z,31.61
2023-09-11T23:59:16.174Z,31.58
